createdAt,value
2018-08-04T00:00:02.994Z,8.50
2018-08-04T00:02:32.563Z,9.88
2018-08-04T00:05:02.204Z,10.28
2018-08-04T00:07:31.494Z,10.82
2018-08-04T00:10:00.367Z,11.45
2018-08-04T00:12:29.805Z,11.15
2018-08-04T00:14:58.763Z,11.80
2018-08-04T00:17:27.754Z,12.65
2018-08-04T00:19:56.792Z,13.28
2018-08-04T00:22:26.077Z,13.28
2018-08-04T00:24:55.417Z,14.55
2018-08-04T00:27:24.797Z,14.00
2018-08-04T00:29:53.772Z,13.88
2018-08-04T00:32:23.782Z,13.48
2018-08-04T00:34:52.999Z,14.58
2018-08-04T00:37:21.878Z,14.83
2018-08-04T00:39:50.968Z,15.38
2018-08-04T00:42:20.290Z,16.97
2018-08-04T00:44:49.979Z,17.02
2018-08-04T00:47:18.795Z,16.80
2018-08-04T00:49:48.570Z,16.25
2018-08-04T00:52:17.584Z,16.65
2018-08-04T00:54:46.791Z,16.82
2018-08-04T00:57:16.114Z,16.65
2018-08-04T00:59:45.196Z,17.57
2018-08-04T01:02:14.283Z,17.00
2018-08-04T01:04:44.546Z,20.17
2018-08-04T01:07:13.290Z,21.62
2018-08-04T01:09:42.185Z,19.95
2018-08-04T01:12:12.019Z,18.87
2018-08-04T01:14:40.992Z,19.02
2018-08-04T01:17:09.854Z,18.67
2018-08-04T01:19:39.512Z,17.17
2018-08-04T01:22:09.104Z,17.73
2018-08-04T01:24:38.194Z,16.67
2018-08-04T01:27:07.431Z,16.73
2018-08-04T01:29:36.535Z,15.78
2018-08-04T01:32:05.502Z,15.23
2018-08-04T01:34:34.825Z,16.23
2018-08-04T01:37:03.891Z,16.15
2018-08-04T01:39:33.094Z,16.23
2018-08-04T01:42:03.454Z,17.20
2018-08-04T01:44:33.304Z,18.37
2018-08-04T01:47:02.416Z,19.82
2018-08-04T01:49:32.158Z,20.40
2018-08-04T01:52:01.047Z,20.50
2018-08-04T01:54:30.133Z,19.95
2018-08-04T01:56:59.594Z,20.05
2018-08-04T01:59:28.427Z,19.80
2018-08-04T02:01:57.428Z,20.10
2018-08-04T02:04:26.738Z,19.77
2018-08-04T02:06:55.827Z,21.20
2018-08-04T02:09:24.822Z,21.17
2018-08-04T02:11:54.035Z,20.62
2018-08-04T02:14:23.114Z,21.20
2018-08-04T02:16:52.102Z,20.90
2018-08-04T02:19:21.427Z,22.07
2018-08-04T02:21:51.179Z,22.05
2018-08-04T02:24:20.723Z,22.22
2018-08-04T02:26:50.039Z,22.02
2018-08-04T02:29:19.210Z,20.45
2018-08-04T02:31:48.503Z,21.97
2018-08-04T02:34:18.123Z,20.08
2018-08-04T02:36:46.920Z,19.87
2018-08-04T02:39:16.407Z,20.00
2018-08-04T02:41:45.750Z,19.95
2018-08-04T02:44:14.631Z,20.57
2018-08-04T02:46:43.524Z,21.42
2018-08-04T02:49:12.947Z,22.22
2018-08-04T02:51:41.808Z,20.05
2018-08-04T02:54:10.975Z,20.97
2018-08-04T02:56:39.934Z,21.73
2018-08-04T02:59:09.063Z,22.15
2018-08-04T03:01:38.215Z,22.35
2018-08-04T03:04:07.414Z,23.38
2018-08-04T03:06:36.495Z,22.20
2018-08-04T03:09:08.802Z,22.82
2018-08-04T03:11:38.079Z,22.30
2018-08-04T03:14:07.547Z,22.82
2018-08-04T03:16:36.842Z,21.80
2018-08-04T03:19:05.972Z,22.75
2018-08-04T03:21:34.731Z,22.87
2018-08-04T03:24:04.591Z,22.37
2018-08-04T03:26:33.443Z,22.07
2018-08-04T03:29:02.765Z,24.32
2018-08-04T03:31:31.954Z,24.45
2018-08-04T03:34:00.998Z,24.00
2018-08-04T03:36:30.318Z,23.67
2018-08-04T03:38:59.670Z,21.80
2018-08-04T03:41:29.388Z,21.87
2018-08-04T03:43:58.473Z,26.82
2018-08-04T03:46:27.504Z,29.50
2018-08-04T03:48:56.676Z,24.82
2018-08-04T03:51:27.427Z,20.05
2018-08-04T03:53:56.737Z,17.73
2018-08-04T03:56:25.821Z,15.70
2018-08-04T03:58:54.488Z,18.00
2018-08-04T04:01:24.441Z,22.17
2018-08-04T04:03:53.400Z,23.15
2018-08-04T04:06:22.201Z,20.48
2018-08-04T04:08:51.112Z,22.30
2018-08-04T04:11:20.067Z,19.05
2018-08-04T04:13:49.538Z,17.92
2018-08-04T04:16:18.743Z,18.20
2018-08-04T04:18:47.674Z,17.40
2018-08-04T04:21:16.743Z,18.17
2018-08-04T04:23:46.228Z,19.87
2018-08-04T04:26:15.250Z,18.23
2018-08-04T04:28:44.060Z,15.35
2018-08-04T04:31:13.365Z,15.03
2018-08-04T04:33:42.326Z,13.35
2018-08-04T04:36:11.538Z,14.15
2018-08-04T04:38:40.387Z,12.37
2018-08-04T04:41:09.448Z,13.93
2018-08-04T04:43:38.643Z,13.35
2018-08-04T04:46:07.914Z,12.63
2018-08-04T04:48:36.948Z,14.18
2018-08-04T04:51:06.239Z,9.98
2018-08-04T04:53:36.467Z,11.80
2018-08-04T04:56:05.554Z,10.95
2018-08-04T04:58:34.442Z,11.68
2018-08-04T05:01:03.311Z,11.40
2018-08-04T05:03:32.241Z,8.93
2018-08-04T05:06:01.365Z,13.68
2018-08-04T05:08:30.654Z,8.85
2018-08-04T05:11:00.130Z,8.65
2018-08-04T05:13:29.040Z,8.35
2018-08-04T05:15:58.782Z,8.60
2018-08-04T05:18:28.403Z,8.48
2018-08-04T05:20:57.955Z,8.03
2018-08-04T05:23:27.099Z,7.97
2018-08-04T05:25:55.958Z,8.93
2018-08-04T05:28:24.939Z,9.68
2018-08-04T05:30:53.983Z,8.63
2018-08-04T05:33:23.131Z,8.13
2018-08-04T05:35:51.922Z,8.88
2018-08-04T05:38:21.063Z,8.68
2018-08-04T05:40:50.242Z,8.78
2018-08-04T05:43:19.388Z,9.38
2018-08-04T05:45:48.842Z,8.43
2018-08-04T05:48:17.825Z,8.88
2018-08-04T05:50:47.361Z,10.15
2018-08-04T05:53:16.798Z,8.73
2018-08-04T05:55:45.930Z,9.00
2018-08-04T05:58:14.710Z,10.70
2018-08-04T06:00:43.947Z,11.12
2018-08-04T06:03:12.909Z,11.70
2018-08-04T06:05:41.695Z,12.10
2018-08-04T06:08:10.791Z,12.90
2018-08-04T06:10:39.813Z,12.03
2018-08-04T06:13:08.695Z,13.08
2018-08-04T06:15:37.882Z,10.75
2018-08-04T06:18:07.097Z,9.80
2018-08-04T06:20:36.407Z,9.28
2018-08-04T06:23:05.823Z,9.00
2018-08-04T06:25:34.994Z,8.85
2018-08-04T06:28:04.105Z,8.18
2018-08-04T06:30:33.068Z,8.70
2018-08-04T06:33:02.183Z,8.15
2018-08-04T06:35:31.048Z,8.85
2018-08-04T06:38:00.291Z,7.08
2018-08-04T06:40:29.431Z,8.03
2018-08-04T06:42:58.219Z,7.83
2018-08-04T06:45:27.405Z,8.50
2018-08-04T06:47:56.647Z,8.68
2018-08-04T06:50:25.809Z,7.40
2018-08-04T06:52:55.496Z,8.05
2018-08-04T06:55:24.572Z,6.45
2018-08-04T06:57:53.715Z,7.03
2018-08-04T07:00:22.859Z,6.72
2018-08-04T07:02:51.707Z,6.28
2018-08-04T07:05:20.778Z,6.08
2018-08-04T07:07:50.255Z,6.40
2018-08-04T07:10:19.326Z,7.17
2018-08-04T07:12:48.174Z,5.97
2018-08-04T07:15:18.132Z,5.70
2018-08-04T07:17:47.239Z,6.03
2018-08-04T07:20:15.924Z,6.00
2018-08-04T07:22:45.539Z,5.85
2018-08-04T07:25:14.511Z,4.80
2018-08-04T07:27:43.623Z,5.60
2018-08-04T07:30:15.498Z,4.20
2018-08-04T07:32:45.648Z,3.55
2018-08-04T07:35:14.505Z,3.17
2018-08-04T07:37:44.331Z,3.72
2018-08-04T07:40:13.501Z,3.65
2018-08-04T07:42:42.934Z,3.62
2018-08-04T07:45:12.093Z,2.10
2018-08-04T07:47:41.612Z,2.10
2018-08-04T07:50:10.535Z,1.65
2018-08-04T07:52:39.819Z,1.62
2018-08-04T07:55:08.926Z,1.80
2018-08-04T07:57:37.791Z,1.62
2018-08-04T08:00:07.872Z,1.85
2018-08-04T08:02:36.699Z,1.75
2018-08-04T08:05:06.033Z,1.50
2018-08-04T08:07:35.434Z,1.98
2018-08-04T08:10:04.999Z,2.05
2018-08-04T08:12:34.981Z,2.12
2018-08-04T08:15:04.406Z,2.02
2018-08-04T08:17:33.226Z,2.10
2018-08-04T08:20:02.415Z,1.60
2018-08-04T08:22:40.475Z,2.15
2018-08-04T08:25:10.933Z,1.65
2018-08-04T08:27:40.844Z,1.80
2018-08-04T08:30:14.047Z,1.32
2018-08-04T08:32:43.633Z,1.15
2018-08-04T08:35:12.727Z,1.60
2018-08-04T08:37:41.999Z,1.70
2018-08-04T08:40:11.023Z,2.05
2018-08-04T08:42:39.935Z,1.50
2018-08-04T08:45:10.096Z,1.80
2018-08-04T08:47:39.289Z,1.75
2018-08-04T08:50:10.467Z,1.60
2018-08-04T08:52:40.940Z,2.25
2018-08-04T08:55:10.531Z,1.65
2018-08-04T08:57:39.571Z,2.05
2018-08-04T09:00:10.494Z,2.35
2018-08-04T09:02:39.507Z,2.35
2018-08-04T09:05:09.781Z,1.65
2018-08-04T09:07:39.122Z,1.17
2018-08-04T09:10:11.198Z,1.47
2018-08-04T09:12:40.145Z,1.20
2018-08-04T09:15:09.484Z,1.62
2018-08-04T09:17:38.484Z,1.40
2018-08-04T09:20:07.956Z,1.25
2018-08-04T09:22:37.503Z,1.05
2018-08-04T09:25:07.972Z,0.93
2018-08-04T09:27:38.031Z,0.85
2018-08-04T09:30:09.003Z,1.17
2018-08-04T09:32:37.883Z,1.15
2018-08-04T09:35:07.502Z,1.07
2018-08-04T09:37:37.153Z,0.85
2018-08-04T09:40:08.066Z,1.10
2018-08-04T09:42:37.022Z,0.93
2018-08-04T09:45:07.358Z,0.80
2018-08-04T09:47:37.015Z,1.05
2018-08-04T09:50:07.890Z,0.82
2018-08-04T09:52:37.070Z,0.60
2018-08-04T09:55:07.087Z,0.80
2018-08-04T09:57:36.671Z,0.90
2018-08-04T10:00:08.818Z,0.60
2018-08-04T10:02:37.911Z,0.70
2018-08-04T10:05:07.103Z,0.70
2018-08-04T10:07:37.247Z,0.60
2018-08-04T10:10:06.526Z,0.68
2018-08-04T10:12:35.827Z,0.70
2018-08-04T10:15:05.576Z,0.60
2018-08-04T10:17:35.063Z,0.70
2018-08-04T10:20:03.888Z,0.60
2018-08-04T10:22:33.186Z,0.60
2018-08-04T10:25:02.315Z,0.60
2018-08-04T10:27:31.787Z,0.75
2018-08-04T10:30:01.018Z,0.62
2018-08-04T10:32:30.552Z,0.70
2018-08-04T10:34:59.589Z,1.10
2018-08-04T10:37:28.830Z,0.50
2018-08-04T10:39:58.702Z,0.80
2018-08-04T10:42:28.332Z,0.80
2018-08-04T10:44:59.135Z,0.55
2018-08-04T10:47:34.751Z,0.70
2018-08-04T10:50:04.983Z,0.62
2018-08-04T10:52:34.273Z,0.60
2018-08-04T10:55:04.037Z,0.70
2018-08-04T10:57:33.403Z,0.80
2018-08-04T11:00:02.569Z,0.72
2018-08-04T11:02:31.998Z,0.95
2018-08-04T11:05:01.318Z,0.60
2018-08-04T11:07:30.069Z,0.80
2018-08-04T11:09:58.881Z,0.80
2018-08-04T11:12:28.247Z,0.78
2018-08-04T11:14:57.279Z,0.95
2018-08-04T11:17:26.064Z,0.80
2018-08-04T11:19:55.670Z,0.80
2018-08-04T11:22:24.761Z,0.60
2018-08-04T11:24:53.818Z,1.12
2018-08-04T11:27:23.130Z,0.72
2018-08-04T11:29:52.051Z,0.75
2018-08-04T11:32:20.852Z,0.72
2018-08-04T11:34:50.359Z,0.80
2018-08-04T11:37:19.627Z,0.80
2018-08-04T11:39:48.547Z,0.70
2018-08-04T11:42:17.671Z,0.78
2018-08-04T11:44:46.500Z,0.80
2018-08-04T11:47:15.417Z,0.70
2018-08-04T11:49:44.855Z,0.93
2018-08-04T11:52:14.835Z,0.60
2018-08-04T11:54:43.630Z,1.10
2018-08-04T11:57:12.930Z,0.93
2018-08-04T11:59:41.833Z,0.80
2018-08-04T12:02:11.347Z,0.80
2018-08-04T12:04:41.191Z,0.80
2018-08-04T12:07:10.276Z,0.95
2018-08-04T12:09:39.141Z,0.88
2018-08-04T12:12:08.767Z,0.70
2018-08-04T12:14:37.641Z,0.80
2018-08-04T12:17:06.329Z,0.80
2018-08-04T12:19:35.414Z,0.90
2018-08-04T12:22:04.110Z,0.70
2018-08-04T12:24:33.350Z,0.70
2018-08-04T12:27:02.802Z,0.70
2018-08-04T12:29:31.800Z,0.85
2018-08-04T12:32:01.229Z,0.90
2018-08-04T12:34:30.323Z,0.70
2018-08-04T12:36:59.571Z,0.70
2018-08-04T12:39:28.211Z,0.93
2018-08-04T12:41:57.935Z,0.70
2018-08-04T12:44:27.011Z,1.00
2018-08-04T12:46:56.248Z,1.10
2018-08-04T12:49:25.641Z,0.88
2018-08-04T12:51:54.970Z,0.85
2018-08-04T12:54:23.914Z,0.90
2018-08-04T12:56:53.131Z,0.90
2018-08-04T12:59:21.899Z,1.22
2018-08-04T13:01:51.010Z,0.80
2018-08-04T13:04:20.334Z,1.20
2018-08-04T13:06:49.079Z,0.88
2018-08-04T13:09:18.601Z,0.90
2018-08-04T13:11:47.812Z,1.00
2018-08-04T13:14:17.246Z,0.70
2018-08-04T13:16:46.465Z,0.80
2018-08-04T13:19:16.019Z,1.00
2018-08-04T13:21:45.099Z,0.80
2018-08-04T13:24:14.719Z,0.88
2018-08-04T13:26:44.110Z,0.80
2018-08-04T13:29:13.196Z,0.90
2018-08-04T13:31:42.263Z,1.07
2018-08-04T13:34:11.712Z,0.95
2018-08-04T13:36:40.503Z,0.70
2018-08-04T13:39:10.603Z,1.00
2018-08-04T13:41:41.188Z,0.82
2018-08-04T13:44:10.976Z,0.82
2018-08-04T13:46:40.372Z,0.80
2018-08-04T13:49:09.677Z,0.80
2018-08-04T13:51:38.854Z,0.90
2018-08-04T13:54:07.959Z,1.00
2018-08-04T13:56:37.213Z,1.22
2018-08-04T13:59:06.257Z,1.00
2018-08-04T14:01:35.248Z,0.95
2018-08-04T14:04:04.678Z,0.70
2018-08-04T14:06:33.661Z,0.82
2018-08-04T14:09:02.554Z,1.00
2018-08-04T14:11:31.538Z,0.90
2018-08-04T14:14:00.225Z,0.80
2018-08-04T14:16:29.235Z,0.80
2018-08-04T14:18:58.547Z,1.00
2018-08-04T14:21:27.858Z,1.10
2018-08-04T14:23:56.915Z,0.70
2018-08-04T14:26:26.322Z,0.90
2018-08-04T14:28:55.399Z,0.75
2018-08-04T14:31:24.512Z,0.70
2018-08-04T14:33:53.783Z,0.70
2018-08-04T14:36:23.059Z,1.00
2018-08-04T14:38:52.387Z,1.00
2018-08-04T14:41:21.734Z,1.00
2018-08-04T14:43:50.883Z,0.80
2018-08-04T14:46:20.083Z,0.72
2018-08-04T14:48:49.231Z,0.90
2018-08-04T14:51:18.512Z,1.00
2018-08-04T14:53:47.509Z,0.85
2018-08-04T14:56:16.547Z,0.72
2018-08-04T14:58:45.803Z,0.88
2018-08-04T15:01:15.008Z,1.10
2018-08-04T15:03:44.023Z,0.80
2018-08-04T15:06:13.093Z,0.80
2018-08-04T15:08:42.875Z,0.80
2018-08-04T15:11:12.013Z,0.90
2018-08-04T15:13:40.996Z,1.15
2018-08-04T15:16:10.282Z,1.07
2018-08-04T15:18:40.956Z,0.90
2018-08-04T15:21:10.443Z,0.85
2018-08-04T15:23:40.559Z,0.80
2018-08-04T15:26:09.379Z,0.90
2018-08-04T15:28:38.605Z,0.93
2018-08-04T15:31:07.666Z,0.70
2018-08-04T15:33:37.255Z,0.80
2018-08-04T15:36:06.459Z,0.80
2018-08-04T15:38:35.539Z,0.90
2018-08-04T15:41:04.381Z,0.70
2018-08-04T15:43:33.148Z,0.85
2018-08-04T15:46:02.229Z,0.95
2018-08-04T15:48:32.079Z,1.20
2018-08-04T15:51:01.024Z,0.98
2018-08-04T15:53:30.283Z,0.90
2018-08-04T15:56:00.557Z,1.00
2018-08-04T15:58:31.047Z,0.90
2018-08-04T16:01:00.601Z,1.00
2018-08-04T16:03:29.815Z,0.95
2018-08-04T16:05:58.626Z,1.40
2018-08-04T16:08:27.413Z,0.93
2018-08-04T16:10:57.247Z,1.27
2018-08-04T16:13:26.468Z,1.00
2018-08-04T16:15:55.530Z,0.98
2018-08-04T16:18:24.638Z,1.20
2018-08-04T16:20:54.348Z,1.02
2018-08-04T16:23:23.546Z,1.30
2018-08-04T16:25:53.061Z,1.10
2018-08-04T16:28:22.424Z,1.27
2018-08-04T16:30:51.427Z,1.30
2018-08-04T16:33:20.898Z,1.55
2018-08-04T16:35:50.059Z,1.62
2018-08-04T16:38:21.530Z,1.55
2018-08-04T16:40:52.064Z,1.57
2018-08-04T16:43:21.293Z,1.37
2018-08-04T16:45:50.082Z,1.80
2018-08-04T16:48:19.494Z,1.62
2018-08-04T16:50:48.570Z,1.72
2018-08-04T16:53:17.681Z,1.50
2018-08-04T16:55:47.191Z,1.42
2018-08-04T16:58:16.687Z,1.37
2018-08-04T17:00:46.003Z,1.40
2018-08-04T17:03:15.136Z,1.60
2018-08-04T17:05:44.107Z,1.52
2018-08-04T17:08:12.943Z,1.10
2018-08-04T17:10:42.244Z,1.37
2018-08-04T17:13:11.937Z,1.35
2018-08-04T17:15:42.774Z,1.40
2018-08-04T17:18:12.236Z,1.77
2018-08-04T17:20:41.431Z,1.62
2018-08-04T17:23:10.710Z,1.42
2018-08-04T17:25:39.954Z,1.67
2018-08-04T17:28:08.829Z,1.67
2018-08-04T17:30:37.444Z,1.70
2018-08-04T17:33:07.128Z,1.50
2018-08-04T17:35:36.304Z,1.72
2018-08-04T17:38:05.310Z,1.98
2018-08-04T17:40:34.738Z,1.65
2018-08-04T17:43:03.495Z,1.50
2018-08-04T17:45:32.468Z,1.50
2018-08-04T17:48:01.577Z,1.47
2018-08-04T17:50:31.207Z,1.92
2018-08-04T17:53:00.811Z,2.12
2018-08-04T17:55:30.127Z,2.50
2018-08-04T17:57:59.403Z,2.52
2018-08-04T18:00:28.608Z,2.35
2018-08-04T18:02:57.759Z,1.92
2018-08-04T18:05:26.813Z,2.10
2018-08-04T18:07:55.826Z,2.45
2018-08-04T18:10:25.110Z,2.37
2018-08-04T18:12:54.248Z,2.02
2018-08-04T18:15:23.090Z,1.62
2018-08-04T18:17:52.158Z,2.17
2018-08-04T18:20:21.079Z,2.00
2018-08-04T18:22:50.480Z,2.50
2018-08-04T18:25:20.217Z,2.22
2018-08-04T18:27:49.099Z,3.87
2018-08-04T18:30:18.393Z,3.02
2018-08-04T18:32:47.907Z,3.67
2018-08-04T18:35:17.694Z,2.72
2018-08-04T18:37:46.821Z,1.90
2018-08-04T18:40:15.940Z,2.80
2018-08-04T18:42:44.832Z,4.00
2018-08-04T18:45:13.790Z,2.50
2018-08-04T18:47:43.103Z,3.40
2018-08-04T18:50:12.300Z,4.22
2018-08-04T18:52:41.296Z,3.47
2018-08-04T18:55:10.811Z,3.42
2018-08-04T18:57:39.664Z,3.90
2018-08-04T19:00:09.294Z,4.47
2018-08-04T19:02:38.793Z,4.33
2018-08-04T19:05:07.527Z,4.78
2018-08-04T19:07:36.675Z,5.00
2018-08-04T19:10:06.207Z,4.80
2018-08-04T19:12:35.383Z,6.35
2018-08-04T19:15:04.699Z,4.30
2018-08-04T19:17:34.111Z,5.12
2018-08-04T19:20:03.247Z,4.70
2018-08-04T19:22:32.505Z,4.65
2018-08-04T19:25:01.664Z,3.95
2018-08-04T19:27:30.764Z,4.20
2018-08-04T19:30:00.179Z,3.80
2018-08-04T19:32:29.836Z,5.28
2018-08-04T19:34:58.715Z,5.17
2018-08-04T19:37:27.800Z,5.25
2018-08-04T19:39:57.908Z,5.75
2018-08-04T19:42:26.919Z,7.80
2018-08-04T19:44:55.912Z,5.00
2018-08-04T19:47:25.047Z,7.35
2018-08-04T19:49:53.998Z,5.22
2018-08-04T19:52:23.039Z,4.92
2018-08-04T19:54:52.510Z,6.10
2018-08-04T19:57:21.696Z,4.10
2018-08-04T19:59:50.595Z,4.30
2018-08-04T20:02:19.911Z,3.98
2018-08-04T20:04:48.777Z,4.20
2018-08-04T20:07:17.592Z,5.05
2018-08-04T20:09:47.279Z,3.25
2018-08-04T20:12:16.183Z,4.30
2018-08-04T20:14:45.390Z,3.65
2018-08-04T20:17:14.795Z,3.50
2018-08-04T20:19:44.162Z,3.12
2018-08-04T20:22:16.313Z,3.40
2018-08-04T20:24:45.658Z,3.10
2018-08-04T20:27:15.372Z,3.55
2018-08-04T20:29:44.664Z,3.45
2018-08-04T20:32:13.745Z,6.70
2018-08-04T20:34:42.541Z,5.20
2018-08-04T20:37:11.668Z,6.62
2018-08-04T20:39:40.971Z,4.45
2018-08-04T20:42:09.968Z,6.55
2018-08-04T20:44:39.329Z,5.20
2018-08-04T20:47:08.875Z,5.83
2018-08-04T20:49:38.567Z,6.40
2018-08-04T20:52:07.911Z,6.25
2018-08-04T20:54:37.158Z,5.20
2018-08-04T20:57:06.147Z,5.20
2018-08-04T20:59:35.482Z,7.95
2018-08-04T21:02:05.601Z,5.65
2018-08-04T21:04:36.099Z,6.28
2018-08-04T21:07:05.505Z,6.35
2018-08-04T21:09:35.168Z,5.50
2018-08-04T21:12:04.887Z,6.00
2018-08-04T21:14:33.834Z,5.65
2018-08-04T21:17:02.628Z,7.25
2018-08-04T21:19:31.629Z,8.35
2018-08-04T21:22:00.575Z,9.25
2018-08-04T21:24:29.724Z,9.70
2018-08-04T21:26:59.870Z,10.20
2018-08-04T21:29:29.169Z,10.65
2018-08-04T21:31:58.534Z,11.43
2018-08-04T21:34:27.856Z,14.68
2018-08-04T21:36:56.783Z,12.03
2018-08-04T21:39:25.630Z,11.88
2018-08-04T21:41:55.190Z,12.35
2018-08-04T21:44:24.014Z,11.97
2018-08-04T21:46:54.029Z,9.98
2018-08-04T21:49:23.063Z,10.95
2018-08-04T21:51:52.095Z,10.55
2018-08-04T21:54:21.030Z,9.95
2018-08-04T21:56:50.630Z,10.15
2018-08-04T21:59:20.963Z,11.03
2018-08-04T22:01:56.694Z,10.08
2018-08-04T22:04:26.462Z,10.13
2018-08-04T22:08:03.979Z,9.15
2018-08-04T22:10:34.305Z,9.05
2018-08-04T22:13:03.480Z,9.45
2018-08-04T22:15:32.871Z,9.50
2018-08-04T22:18:02.033Z,10.65
2018-08-04T22:20:31.403Z,9.00
2018-08-04T22:23:00.700Z,9.30
2018-08-04T22:25:30.702Z,8.50
2018-08-04T22:28:00.234Z,8.50
2018-08-04T22:30:29.529Z,7.58
2018-08-04T22:32:58.579Z,8.15
2018-08-04T22:35:27.806Z,8.53
2018-08-04T22:37:57.302Z,8.40
2018-08-04T22:40:26.496Z,7.95
2018-08-04T22:42:55.664Z,7.83
2018-08-04T22:46:03.353Z,7.22
2018-08-04T22:48:32.619Z,7.00
2018-08-04T22:51:01.723Z,8.45
2018-08-04T22:53:31.294Z,7.42
2018-08-04T22:56:00.483Z,9.13
2018-08-04T22:58:29.690Z,8.90
2018-08-04T23:00:59.276Z,9.10
2018-08-04T23:03:28.365Z,9.33
2018-08-04T23:05:57.497Z,10.08
2018-08-04T23:08:26.802Z,9.15
2018-08-04T23:10:56.078Z,9.40
2018-08-04T23:13:25.393Z,10.50
2018-08-04T23:15:55.992Z,10.30
2018-08-04T23:18:25.104Z,9.75
2018-08-04T23:20:54.310Z,10.05
2018-08-04T23:23:23.784Z,9.00
2018-08-04T23:25:54.059Z,8.50
2018-08-04T23:28:23.126Z,8.48
2018-08-04T23:30:52.598Z,8.88
2018-08-04T23:33:21.826Z,9.10
2018-08-04T23:35:51.681Z,8.23
2018-08-04T23:38:21.298Z,9.38
2018-08-04T23:40:50.590Z,9.05
2018-08-04T23:43:19.759Z,8.63
2018-08-04T23:45:48.792Z,7.50
2018-08-04T23:48:17.746Z,8.00
2018-08-04T23:50:46.671Z,8.10
2018-08-04T23:53:16.206Z,8.20
2018-08-04T23:55:45.172Z,7.37
2018-08-04T23:58:14.155Z,7.95
